createdAt,value
2019-02-27T00:02:27.555Z,99.90
2019-02-27T00:04:56.612Z,99.90
2019-02-27T00:07:25.619Z,99.90
2019-02-27T00:09:54.538Z,99.90
2019-02-27T00:12:23.464Z,99.90
2019-02-27T00:14:52.401Z,99.90
2019-02-27T00:17:21.334Z,99.90
2019-02-27T00:19:50.294Z,99.90
2019-02-27T00:22:23.873Z,99.90
2019-02-27T00:24:49.985Z,99.90
2019-02-27T00:27:18.955Z,99.90
2019-02-27T00:29:47.842Z,99.90
2019-02-27T00:32:18.579Z,99.90
2019-02-27T00:34:47.478Z,99.90
2019-02-27T00:37:18.747Z,99.90
2019-02-27T00:39:47.046Z,99.90
2019-02-27T00:42:19.587Z,99.90
2019-02-27T00:44:46.729Z,99.90
2019-02-27T00:47:19.726Z,99.90
2019-02-27T00:49:46.361Z,99.90
2019-02-27T00:52:17.993Z,99.90
2019-02-27T00:54:45.993Z,99.90
2019-02-27T00:57:15.279Z,99.90
2019-02-27T00:59:45.315Z,99.90
2019-02-27T01:02:14.246Z,99.90
2019-02-27T01:04:43.173Z,99.90
2019-02-27T01:07:21.419Z,99.90
2019-02-27T01:09:51.166Z,99.90
2019-02-27T01:12:22.970Z,99.90
2019-02-27T01:14:51.770Z,99.90
2019-02-27T01:17:23.818Z,99.90
2019-02-27T01:19:53.819Z,99.90
2019-02-27T01:22:22.751Z,99.90
2019-02-27T01:24:56.245Z,99.90
2019-02-27T01:27:38.717Z,99.90
2019-02-27T01:30:23.921Z,99.90
2019-02-27T01:32:47.243Z,99.90
2019-02-27T01:35:22.232Z,99.90
2019-02-27T01:37:51.341Z,99.90
2019-02-27T01:40:20.377Z,99.90
2019-02-27T01:42:49.368Z,99.90
2019-02-27T01:45:21.054Z,99.90
2019-02-27T01:47:50.706Z,99.90
2019-02-27T01:50:29.307Z,99.90
2019-02-27T01:52:59.923Z,99.90
2019-02-27T01:55:31.778Z,99.90
2019-02-27T01:58:09.550Z,99.90
2019-02-27T02:00:39.082Z,99.90
2019-02-27T02:03:08.142Z,99.90
2019-02-27T02:05:37.197Z,99.90
2019-02-27T02:08:08.013Z,99.90
2019-02-27T02:10:36.972Z,99.90
2019-02-27T02:13:14.950Z,99.90
2019-02-27T02:16:10.547Z,99.90
2019-02-27T02:19:32.670Z,99.90
2019-02-27T02:22:42.977Z,99.90
2019-02-27T02:26:11.694Z,99.90
2019-02-27T02:29:30.866Z,99.90
2019-02-27T02:32:30.707Z,99.90
2019-02-27T02:35:14.805Z,99.90
2019-02-27T02:38:24.091Z,99.90
2019-02-27T02:41:29.079Z,99.90
2019-02-27T02:44:35.564Z,99.90
2019-02-27T02:47:23.325Z,99.90
2019-02-27T02:50:46.727Z,99.90
2019-02-27T02:53:31.608Z,99.90
2019-02-27T02:56:30.467Z,99.90
2019-02-27T02:59:42.982Z,99.90
2019-02-27T03:02:29.859Z,99.90
2019-02-27T03:05:31.850Z,99.90
2019-02-27T03:08:21.274Z,99.90
2019-02-27T03:11:22.430Z,99.90
2019-02-27T03:14:22.023Z,99.90
2019-02-27T03:17:29.667Z,99.90
2019-02-27T03:20:34.526Z,99.90
2019-02-27T03:23:23.103Z,99.90
2019-02-27T03:26:07.854Z,99.90
2019-02-27T03:29:23.988Z,99.90
2019-02-27T03:32:40.885Z,99.90
2019-02-27T03:35:48.917Z,99.90
2019-02-27T03:39:11.099Z,99.90
2019-02-27T03:42:25.634Z,99.90
2019-02-27T03:45:13.444Z,99.90
2019-02-27T03:47:53.331Z,99.90
2019-02-27T03:50:49.615Z,99.90
2019-02-27T03:53:56.539Z,99.90
2019-02-27T03:57:05.861Z,99.90
2019-02-27T03:59:57.419Z,99.90
2019-02-27T04:02:55.399Z,99.90
2019-02-27T04:06:21.470Z,99.90
2019-02-27T04:08:58.129Z,99.90
2019-02-27T04:11:27.713Z,99.90
2019-02-27T04:14:03.065Z,99.90
2019-02-27T04:16:30.542Z,99.90
2019-02-27T04:19:03.116Z,99.90
2019-02-27T04:21:30.302Z,99.90
2019-02-27T04:23:59.407Z,99.90
2019-02-27T04:26:28.375Z,99.90
2019-02-27T04:28:57.315Z,99.90
2019-02-27T04:31:29.646Z,99.90
2019-02-27T04:33:59.537Z,99.90
2019-02-27T04:36:27.538Z,99.90
2019-02-27T04:38:56.458Z,99.90
2019-02-27T04:41:28.287Z,99.90
2019-02-27T04:43:57.161Z,99.90
2019-02-27T04:46:26.010Z,99.90
2019-02-27T04:48:54.966Z,99.90
2019-02-27T04:51:23.899Z,99.90
2019-02-27T04:53:52.921Z,99.90
2019-02-27T04:56:23.316Z,99.90
2019-02-27T04:58:52.390Z,99.90
2019-02-27T05:01:21.265Z,99.90
2019-02-27T05:03:50.282Z,99.90
2019-02-27T05:06:19.242Z,99.90
2019-02-27T05:08:48.131Z,99.90
2019-02-27T05:11:16.995Z,99.90
2019-02-27T05:13:45.845Z,99.90
2019-02-27T05:16:14.842Z,99.90
2019-02-27T05:18:43.864Z,99.90
2019-02-27T05:21:12.894Z,99.90
2019-02-27T05:23:41.885Z,99.90
2019-02-27T05:26:10.749Z,99.90
2019-02-27T05:28:39.688Z,99.90
2019-02-27T05:31:08.578Z,99.90
2019-02-27T05:33:39.686Z,99.90
2019-02-27T05:36:08.037Z,99.90
2019-02-27T05:38:36.974Z,99.90
2019-02-27T05:41:06.038Z,99.90
2019-02-27T05:43:34.916Z,99.90
2019-02-27T05:46:03.996Z,99.90
2019-02-27T05:48:32.902Z,99.90
2019-02-27T05:51:01.850Z,99.90
2019-02-27T05:53:30.724Z,99.90
2019-02-27T05:55:59.638Z,99.90
2019-02-27T05:58:28.622Z,99.90
2019-02-27T06:00:57.514Z,99.90
2019-02-27T06:03:26.747Z,99.90
2019-02-27T06:05:55.625Z,99.90
2019-02-27T06:08:24.474Z,99.90
2019-02-27T06:10:56.019Z,99.90
2019-02-27T06:13:24.070Z,99.90
2019-02-27T06:15:53.022Z,99.90
2019-02-27T06:18:23.403Z,99.90
2019-02-27T06:20:52.658Z,99.90
2019-02-27T06:23:21.510Z,99.90
2019-02-27T06:25:50.472Z,99.90
2019-02-27T06:28:19.466Z,99.90
2019-02-27T06:30:48.472Z,99.90
2019-02-27T06:33:17.405Z,99.90
2019-02-27T06:35:46.680Z,99.90
2019-02-27T06:38:15.635Z,99.90
2019-02-27T06:40:44.734Z,99.90
2019-02-27T06:43:13.923Z,99.90
2019-02-27T06:45:45.598Z,99.90
2019-02-27T06:48:13.622Z,99.90
2019-02-27T06:50:42.587Z,99.90
2019-02-27T06:53:15.634Z,99.90
2019-02-27T06:55:42.204Z,99.90
2019-02-27T06:58:14.459Z,99.90
2019-02-27T07:00:41.662Z,99.90
2019-02-27T07:03:10.634Z,99.90
2019-02-27T07:05:39.935Z,99.90
2019-02-27T07:08:09.416Z,99.90
2019-02-27T07:10:38.830Z,99.90
2019-02-27T07:13:07.961Z,99.90
2019-02-27T07:15:36.922Z,99.90
2019-02-27T07:18:06.688Z,99.90
2019-02-27T07:20:35.663Z,99.90
2019-02-27T07:23:04.661Z,99.90
2019-02-27T07:25:33.723Z,99.90
2019-02-27T07:28:03.499Z,99.90
2019-02-27T07:30:32.785Z,99.90
2019-02-27T07:33:03.801Z,99.90
2019-02-27T07:35:32.409Z,99.90
2019-02-27T07:38:01.815Z,99.90
2019-02-27T07:40:31.013Z,99.90
2019-02-27T07:43:00.290Z,99.90
2019-02-27T07:45:29.701Z,99.90
2019-02-27T07:47:58.746Z,99.90
2019-02-27T07:50:27.700Z,99.90
2019-02-27T07:52:56.658Z,99.90
2019-02-27T07:55:28.344Z,99.90
2019-02-27T07:57:58.805Z,99.90
2019-02-27T08:00:27.020Z,99.90
2019-02-27T08:02:55.945Z,99.90
2019-02-27T08:05:27.946Z,99.90
2019-02-27T08:07:55.684Z,98.90
2019-02-27T08:10:24.790Z,97.50
2019-02-27T08:12:56.424Z,95.30
2019-02-27T08:15:25.570Z,92.60
2019-02-27T08:17:57.568Z,84.50
2019-02-27T08:20:25.488Z,82.10
2019-02-27T08:22:54.633Z,79.00
2019-02-27T08:25:23.623Z,73.30
2019-02-27T08:27:54.120Z,70.40
2019-02-27T08:30:23.524Z,68.80
2019-02-27T08:32:52.600Z,65.60
2019-02-27T08:35:21.595Z,60.10
2019-02-27T08:37:50.749Z,58.60
2019-02-27T08:40:24.041Z,56.40
2019-02-27T08:42:50.575Z,54.40
2019-02-27T08:45:20.516Z,54.30
2019-02-27T08:47:55.817Z,51.80
2019-02-27T08:50:26.093Z,51.40
2019-02-27T08:52:55.093Z,51.00
2019-02-27T08:55:24.088Z,48.20
2019-02-27T08:57:56.895Z,47.10
2019-02-27T09:00:23.977Z,45.10
2019-02-27T09:02:55.717Z,40.70
2019-02-27T09:05:25.231Z,39.60
2019-02-27T09:07:54.257Z,36.00
2019-02-27T09:10:26.241Z,36.60
2019-02-27T09:13:04.405Z,35.10
2019-02-27T09:15:24.892Z,33.70
2019-02-27T09:17:59.136Z,31.80
2019-02-27T09:20:29.019Z,31.50
2019-02-27T09:22:58.077Z,32.80
2019-02-27T09:25:27.189Z,31.90
2019-02-27T09:27:57.044Z,31.80
2019-02-27T09:30:29.306Z,32.20
2019-02-27T09:32:57.455Z,31.50
2019-02-27T09:35:26.473Z,31.80
2019-02-27T09:37:55.667Z,31.00
2019-02-27T09:40:24.688Z,31.40
2019-02-27T09:42:53.984Z,30.70
2019-02-27T09:45:28.237Z,30.40
2019-02-27T09:47:59.882Z,30.10
2019-02-27T09:50:33.568Z,29.80
2019-02-27T09:53:03.720Z,29.50
2019-02-27T09:55:33.633Z,29.30
2019-02-27T09:58:03.016Z,29.70
2019-02-27T10:00:40.113Z,30.00
2019-02-27T10:03:09.215Z,30.60
2019-02-27T10:05:40.701Z,30.30
2019-02-27T10:08:09.860Z,29.70
2019-02-27T10:10:38.925Z,29.10
2019-02-27T10:13:08.063Z,29.20
2019-02-27T10:15:37.191Z,29.40
2019-02-27T10:18:06.264Z,29.50
2019-02-27T10:20:37.412Z,29.90
2019-02-27T10:23:06.247Z,29.70
2019-02-27T10:25:35.340Z,29.80
2019-02-27T10:28:04.870Z,29.40
2019-02-27T10:30:34.121Z,29.20
2019-02-27T10:33:03.527Z,29.30
2019-02-27T10:35:34.685Z,29.10
2019-02-27T10:38:04.807Z,28.70
2019-02-27T10:40:33.914Z,28.00
2019-02-27T10:43:02.992Z,27.50
2019-02-27T10:45:32.003Z,27.90
2019-02-27T10:48:00.978Z,27.40
2019-02-27T10:50:30.015Z,26.60
2019-02-27T10:52:58.904Z,27.10
2019-02-27T10:55:27.893Z,26.90
2019-02-27T10:57:56.948Z,26.40
2019-02-27T11:00:28.935Z,26.50
2019-02-27T11:02:58.007Z,27.00
2019-02-27T11:05:27.752Z,27.10
2019-02-27T11:07:56.708Z,27.10
2019-02-27T11:10:26.042Z,27.40
2019-02-27T11:12:55.191Z,27.90
2019-02-27T11:15:24.430Z,27.80
2019-02-27T11:17:53.634Z,28.40
2019-02-27T11:20:24.616Z,28.90
2019-02-27T11:22:53.448Z,29.00
2019-02-27T11:25:23.228Z,28.90
2019-02-27T11:27:52.347Z,29.70
2019-02-27T11:30:24.833Z,30.00
2019-02-27T11:32:56.847Z,29.20
2019-02-27T11:35:25.197Z,29.70
2019-02-27T11:37:55.102Z,30.00
2019-02-27T11:40:26.746Z,29.20
2019-02-27T11:42:55.783Z,29.70
2019-02-27T11:45:24.951Z,30.30
2019-02-27T11:47:54.100Z,31.20
2019-02-27T11:50:23.080Z,31.20
2019-02-27T11:52:52.367Z,31.90
2019-02-27T11:55:21.473Z,30.30
2019-02-27T11:57:58.002Z,29.60
2019-02-27T12:00:37.255Z,30.50
2019-02-27T12:03:08.595Z,30.00
2019-02-27T12:05:37.263Z,30.50
2019-02-27T12:08:06.416Z,30.10
2019-02-27T12:10:35.402Z,28.20
2019-02-27T12:13:04.755Z,29.40
2019-02-27T12:15:35.426Z,29.40
2019-02-27T12:18:04.517Z,29.70
2019-02-27T12:20:35.359Z,30.80
2019-02-27T12:23:07.442Z,31.50
2019-02-27T12:25:36.009Z,30.30
2019-02-27T12:28:06.064Z,30.80
2019-02-27T12:30:41.650Z,31.30
2019-02-27T12:33:08.215Z,31.70
2019-02-27T12:35:38.584Z,32.40
2019-02-27T12:38:08.498Z,32.00
2019-02-27T12:40:43.487Z,32.30
2019-02-27T12:43:17.236Z,30.80
2019-02-27T12:45:43.655Z,31.70
2019-02-27T12:48:16.316Z,31.40
2019-02-27T12:50:46.006Z,32.00
2019-02-27T12:53:15.251Z,33.30
2019-02-27T12:55:44.751Z,33.10
2019-02-27T12:58:13.811Z,33.30
2019-02-27T13:00:43.295Z,32.70
2019-02-27T13:03:12.724Z,33.20
2019-02-27T13:05:42.014Z,33.60
2019-02-27T13:08:11.799Z,34.80
2019-02-27T13:10:41.522Z,35.10
2019-02-27T13:13:11.408Z,35.40
2019-02-27T13:15:41.842Z,35.60
2019-02-27T13:18:10.943Z,35.50
2019-02-27T13:20:42.986Z,35.60
2019-02-27T13:23:11.408Z,35.40
2019-02-27T13:25:40.841Z,36.90
2019-02-27T13:28:10.394Z,36.00
2019-02-27T13:30:41.695Z,35.70
2019-02-27T13:33:12.288Z,35.30
2019-02-27T13:35:41.465Z,36.40
2019-02-27T13:38:10.688Z,35.40
2019-02-27T13:40:39.963Z,36.20
2019-02-27T13:43:09.315Z,35.50
2019-02-27T13:45:47.348Z,36.40
2019-02-27T13:48:14.500Z,36.80
2019-02-27T13:50:43.738Z,37.00
2019-02-27T13:53:13.339Z,36.30
2019-02-27T13:55:45.386Z,35.70
2019-02-27T13:58:13.853Z,35.60
2019-02-27T14:00:43.157Z,36.40
2019-02-27T14:03:12.624Z,36.30
2019-02-27T14:05:42.419Z,36.70
2019-02-27T14:08:11.738Z,36.80
2019-02-27T14:10:40.898Z,35.90
2019-02-27T14:13:10.070Z,36.10
2019-02-27T14:15:39.271Z,36.80
2019-02-27T14:18:09.077Z,36.30
2019-02-27T14:20:38.374Z,36.50
2019-02-27T14:23:08.042Z,36.10
2019-02-27T14:25:37.443Z,35.00
2019-02-27T14:28:06.811Z,35.20
2019-02-27T14:30:39.119Z,35.80
2019-02-27T14:33:08.606Z,36.70
2019-02-27T14:35:37.835Z,37.30
2019-02-27T14:38:06.937Z,37.50
2019-02-27T14:40:40.096Z,37.90
2019-02-27T14:43:29.529Z,37.80
2019-02-27T14:45:59.243Z,37.50
2019-02-27T14:48:28.702Z,37.60
2019-02-27T14:50:58.104Z,37.70
2019-02-27T14:53:29.286Z,37.60
2019-02-27T14:55:59.266Z,38.00
2019-02-27T14:58:28.880Z,38.50
2019-02-27T15:00:58.296Z,38.40
2019-02-27T15:03:29.988Z,38.90
2019-02-27T15:05:59.447Z,39.30
2019-02-27T15:08:29.300Z,39.60
2019-02-27T15:10:58.428Z,40.00
2019-02-27T15:13:28.339Z,45.30
2019-02-27T15:15:58.043Z,44.20
2019-02-27T15:18:27.118Z,43.50
2019-02-27T15:20:56.288Z,43.40
2019-02-27T15:23:28.210Z,43.40
2019-02-27T15:25:56.553Z,43.60
2019-02-27T15:28:25.763Z,43.80
2019-02-27T15:30:54.736Z,46.10
2019-02-27T15:33:23.699Z,45.20
2019-02-27T15:35:55.056Z,45.20
2019-02-27T15:38:23.355Z,45.80
2019-02-27T15:40:52.347Z,46.30
2019-02-27T15:43:21.415Z,46.30
2019-02-27T15:45:50.472Z,46.60
2019-02-27T15:48:19.358Z,46.50
2019-02-27T15:50:48.420Z,46.70
2019-02-27T15:53:17.381Z,47.10
2019-02-27T15:55:46.445Z,48.10
2019-02-27T15:58:15.467Z,48.00
2019-02-27T16:00:44.513Z,49.00
2019-02-27T16:03:13.463Z,48.90
2019-02-27T16:05:42.513Z,49.50
2019-02-27T16:08:11.470Z,50.00
2019-02-27T16:10:43.775Z,50.00
2019-02-27T16:13:11.115Z,50.30
2019-02-27T16:15:40.072Z,50.50
2019-02-27T16:18:08.987Z,51.10
2019-02-27T16:20:38.107Z,51.60
2019-02-27T16:23:07.138Z,51.70
2019-02-27T16:25:36.058Z,52.20
2019-02-27T16:28:05.100Z,52.80
2019-02-27T16:30:34.166Z,52.90
2019-02-27T16:33:03.223Z,53.60
2019-02-27T16:35:32.360Z,54.50
2019-02-27T16:38:01.404Z,54.90
2019-02-27T16:40:30.579Z,55.20
2019-02-27T16:42:59.564Z,55.50
2019-02-27T16:45:33.860Z,55.40
2019-02-27T16:48:00.377Z,55.70
2019-02-27T16:50:29.525Z,56.20
2019-02-27T16:52:58.558Z,56.60
2019-02-27T16:55:27.603Z,57.10
2019-02-27T16:57:57.811Z,58.00
2019-02-27T17:00:28.465Z,57.70
2019-02-27T17:02:57.588Z,58.70
2019-02-27T17:05:26.707Z,59.10
2019-02-27T17:08:00.246Z,59.80
2019-02-27T17:10:29.352Z,61.20
2019-02-27T17:12:58.878Z,60.80
2019-02-27T17:15:28.190Z,61.90
2019-02-27T17:17:57.391Z,62.90
2019-02-27T17:20:26.464Z,63.90
2019-02-27T17:22:55.521Z,65.10
2019-02-27T17:25:29.085Z,65.80
2019-02-27T17:27:55.416Z,67.10
2019-02-27T17:30:26.676Z,69.20
2019-02-27T17:32:55.716Z,71.00
2019-02-27T17:35:24.772Z,71.90
2019-02-27T17:37:53.866Z,73.80
2019-02-27T17:40:22.982Z,76.90
2019-02-27T17:42:53.447Z,78.50
2019-02-27T17:45:22.897Z,80.80
2019-02-27T17:47:51.909Z,84.20
2019-02-27T17:50:21.143Z,85.50
2019-02-27T17:52:50.176Z,88.50
2019-02-27T17:55:19.418Z,89.70
2019-02-27T17:57:48.385Z,90.70
2019-02-27T18:00:22.360Z,91.70
2019-02-27T18:02:51.434Z,92.40
2019-02-27T18:05:22.382Z,93.70
2019-02-27T18:07:51.326Z,94.40
2019-02-27T18:10:20.413Z,95.20
2019-02-27T18:12:51.070Z,95.70
2019-02-27T18:15:21.134Z,96.40
2019-02-27T18:17:50.583Z,96.70
2019-02-27T18:20:24.124Z,97.00
2019-02-27T18:22:50.804Z,97.60
2019-02-27T18:25:19.936Z,98.00
2019-02-27T18:27:49.011Z,98.70
2019-02-27T18:30:18.819Z,99.20
2019-02-27T18:32:48.763Z,99.40
2019-02-27T18:35:17.892Z,99.50
2019-02-27T18:37:47.216Z,99.90
2019-02-27T18:40:16.388Z,99.90
2019-02-27T18:42:45.366Z,99.90
2019-02-27T18:45:16.211Z,99.90
2019-02-27T18:47:45.450Z,99.90
2019-02-27T18:50:14.987Z,99.90
2019-02-27T18:52:44.300Z,99.90
2019-02-27T18:55:13.744Z,99.90
2019-02-27T18:57:45.835Z,99.90
2019-02-27T19:00:20.264Z,99.90
2019-02-27T19:02:52.027Z,99.90
2019-02-27T19:05:20.718Z,99.90
2019-02-27T19:07:53.652Z,99.90
2019-02-27T19:10:20.439Z,99.90
2019-02-27T19:12:49.631Z,99.90
2019-02-27T19:15:19.598Z,99.90
2019-02-27T19:17:48.761Z,99.90
2019-02-27T19:20:23.818Z,99.90
2019-02-27T19:22:50.840Z,99.90
2019-02-27T19:25:19.787Z,99.90
2019-02-27T19:27:49.916Z,99.90
2019-02-27T19:30:19.943Z,99.90
2019-02-27T19:32:49.539Z,99.90
2019-02-27T19:35:21.721Z,99.90
2019-02-27T19:37:49.855Z,99.90
2019-02-27T19:40:19.712Z,99.90
2019-02-27T19:42:53.511Z,99.90
2019-02-27T19:45:22.708Z,99.90
2019-02-27T19:47:54.788Z,99.90
2019-02-27T19:50:22.670Z,99.90
2019-02-27T19:52:51.891Z,99.90
2019-02-27T19:55:26.537Z,99.90
2019-02-27T19:57:52.031Z,99.90
2019-02-27T20:00:22.995Z,99.90
2019-02-27T20:02:55.210Z,99.90
2019-02-27T20:05:23.254Z,99.90
2019-02-27T20:07:52.663Z,99.90
2019-02-27T20:10:21.887Z,99.90
2019-02-27T20:12:53.671Z,99.90
2019-02-27T20:15:23.415Z,99.90
2019-02-27T20:17:53.263Z,99.90
2019-02-27T20:20:22.950Z,99.90
2019-02-27T20:22:53.616Z,99.90
2019-02-27T20:25:23.704Z,99.90
2019-02-27T20:27:52.859Z,99.90
2019-02-27T20:30:22.407Z,99.90
2019-02-27T20:32:51.603Z,99.90
2019-02-27T20:35:21.574Z,99.90
2019-02-27T20:37:50.771Z,99.90
2019-02-27T20:40:19.847Z,99.90
2019-02-27T20:42:50.759Z,99.90
2019-02-27T20:45:19.846Z,99.90
2019-02-27T20:47:49.043Z,99.90
2019-02-27T20:50:38.551Z,99.90
2019-02-27T20:53:07.917Z,99.90
2019-02-27T20:55:36.924Z,99.90
2019-02-27T20:58:06.167Z,99.90
2019-02-27T21:00:36.478Z,99.90
2019-02-27T21:03:06.379Z,99.90
2019-02-27T21:05:35.615Z,99.90
2019-02-27T21:08:05.015Z,99.90
2019-02-27T21:10:34.255Z,99.90
2019-02-27T21:13:03.667Z,99.90
2019-02-27T21:15:33.451Z,99.90
2019-02-27T21:18:02.669Z,99.90
2019-02-27T21:20:33.266Z,99.90
2019-02-27T21:23:02.428Z,99.90
2019-02-27T21:25:31.448Z,99.90
2019-02-27T21:28:00.507Z,99.90
2019-02-27T21:30:29.461Z,99.90
2019-02-27T21:32:58.457Z,99.90
2019-02-27T21:35:29.781Z,99.90
2019-02-27T21:37:58.293Z,99.90
2019-02-27T21:40:27.395Z,99.90
2019-02-27T21:42:56.422Z,99.90
2019-02-27T21:45:25.647Z,99.90
2019-02-27T21:47:54.877Z,99.90
2019-02-27T21:50:24.275Z,99.90
2019-02-27T21:52:54.477Z,99.90
2019-02-27T21:55:24.049Z,99.90
2019-02-27T21:57:53.054Z,99.90
2019-02-27T22:00:23.604Z,99.90
2019-02-27T22:02:52.898Z,99.90
2019-02-27T22:05:21.851Z,99.90
2019-02-27T22:07:50.963Z,99.90
2019-02-27T22:10:20.595Z,99.90
2019-02-27T22:12:49.799Z,99.90
2019-02-27T22:15:22.860Z,99.90
2019-02-27T22:17:52.041Z,99.90
2019-02-27T22:20:21.153Z,99.90
2019-02-27T22:22:50.631Z,99.90
2019-02-27T22:25:19.595Z,99.90
2019-02-27T22:27:48.664Z,99.90
2019-02-27T22:30:17.987Z,99.90
2019-02-27T22:32:48.095Z,99.90
2019-02-27T22:35:17.717Z,99.90
2019-02-27T22:37:51.029Z,99.90
2019-02-27T22:40:17.751Z,99.90
2019-02-27T22:42:48.479Z,99.90
2019-02-27T22:45:18.135Z,99.90
2019-02-27T22:47:47.334Z,99.90
2019-02-27T22:50:16.567Z,99.90
2019-02-27T22:52:45.660Z,99.90
2019-02-27T22:55:15.147Z,99.90
2019-02-27T22:57:44.164Z,99.90
2019-02-27T23:00:43.150Z,99.90
2019-02-27T23:03:10.834Z,99.90
2019-02-27T23:05:39.927Z,99.90
2019-02-27T23:08:08.976Z,99.90
2019-02-27T23:10:38.117Z,99.90
2019-02-27T23:13:12.226Z,99.90
2019-02-27T23:15:39.250Z,99.90
2019-02-27T23:18:08.478Z,99.90
2019-02-27T23:20:37.602Z,99.90
2019-02-27T23:23:06.698Z,99.90
2019-02-27T23:25:35.839Z,99.90
2019-02-27T23:28:04.832Z,99.90
2019-02-27T23:30:33.871Z,99.90
2019-02-27T23:33:03.060Z,99.90
2019-02-27T23:35:32.077Z,99.90
2019-02-27T23:38:03.418Z,99.90
2019-02-27T23:40:31.911Z,99.90
2019-02-27T23:43:03.288Z,99.90
2019-02-27T23:45:31.848Z,99.90
2019-02-27T23:48:02.272Z,99.90
2019-02-27T23:50:31.568Z,99.90
2019-02-27T23:53:00.639Z,99.90
2019-02-27T23:55:29.678Z,99.90
2019-02-27T23:57:58.622Z,99.90
